New Lebanon, Ohio
Current Conditions -  °F | °C
As of 3:53 AM on Sunday 23 Nov 2014 (Local Time) from KMGY Reporting Station
Overcast Overcast  
Wind Chill: 50°   Ceiling: 5000
Heat Index: 50°   Visibility: 10mi
Dew Point: 37°   Wind: 8mph
Humidity: 61%   Direction: 170°S
Pressure: 30.01"   Gusts: NA
Location:  39.75°N, 84.38°W
Report Text: KMGY 230853Z AUTO 17007KT 10SM OVC050 10/03 A3001 RMK AO2 SLP162 60000 T01000028 58010
Loading
Personal Weather Stations






























Interactive Weather Map New forecast layout! Learn more

10-Day Weather Forecast

Advertisements
Track Severe Weather on mobile